Time;durP1;ratioP1;P1;durP2;ratioP2;P2;SDS_P1;SDS_P2;PMS_P1;PMS_P2;Temp;Humidity;BMP_temperature;BMP_pressure;BME280_temperature;BME280_humidity;BME280_pressure;Samples;Min_cycle;Max_cycle;Signal;HPM_P1;HPM_P2
2022/10/04 00:02:23;;;;;;;11.08;3.17;;;;;;;10.12;89.59;100400.05;2080244;85;21065;-77
2022/10/04 00:05:25;;;;;;;11.00;3.33;;;;;;;10.12;89.68;100403.20;2079082;85;21100;-76
2022/10/04 00:08:43;;;;;;;14.47;3.20;;;;;;;10.07;89.72;100395.20;2080927;85;21096;-77
2022/10/04 00:11:47;;;;;;;17.23;3.37;;;;;;;10.13;89.76;100405.67;2082175;85;21046;-77
2022/10/04 00:14:51;;;;;;;12.95;3.62;;;;;;;10.11;89.78;100409.00;2084059;84;21464;-77
2022/10/04 00:18:23;;;;;;;14.80;3.75;;;;;;;10.10;89.96;100399.36;2081055;85;21588;-77
2022/10/04 00:21:47;;;;;;;13.32;3.37;;;;;;;10.07;90.04;100395.20;2059308;85;21476;-75
2022/10/04 00:25:12;;;;;;;17.02;3.83;;;;;;;9.94;90.28;100379.37;2077076;85;20977;-76
2022/10/04 00:28:27;;;;;;;14.55;3.67;;;;;;;9.94;90.28;100379.37;2075924;85;20997;-75
2022/10/04 00:31:28;;;;;;;11.08;3.62;;;;;;;10.04;90.35;100393.37;2076826;85;21065;-75
2022/10/04 00:34:49;;;;;;;15.85;3.60;;;;;;;10.02;90.51;100391.36;2081401;85;21475;-76
2022/10/04 00:37:57;;;;;;;9.70;3.67;;;;;;;10.01;90.55;100389.20;2075927;85;21568;-77
2022/10/04 00:41:05;;;;;;;16.25;3.37;;;;;;;10.02;90.43;100392.22;2074448;84;21336;-76
2022/10/04 00:44:12;;;;;;;14.40;3.47;;;;;;;9.99;90.52;100384.55;2083620;85;21042;-76
2022/10/04 00:47:40;;;;;;;10.53;3.22;;;;;;;9.99;90.52;100384.55;2081178;85;20967;-76
2022/10/04 00:50:46;;;;;;;8.05;2.95;;;;;;;9.86;90.52;100370.41;2080896;84;21078;-76
2022/10/04 00:54:01;;;;;;;12.07;2.90;;;;;;;9.96;90.65;100386.69;2078000;85;21039;-76
2022/10/04 00:57:08;;;;;;;12.60;3.55;;;;;;;9.96;90.65;100386.69;2076550;84;21506;-76
2022/10/04 01:00:16;;;;;;;12.70;3.05;;;;;;;9.95;90.58;100389.84;2057664;85;21097;-77
2022/10/04 01:03:29;;;;;;;15.80;4.05;;;;;;;9.93;90.71;100387.00;2079455;85;21509;-76
2022/10/04 01:06:33;;;;;;;14.38;3.95;;;;;;;9.92;90.66;100395.45;2084410;85;21128;-77
2022/10/04 01:09:39;;;;;;;14.45;3.37;;;;;;;9.91;90.64;100386.31;2079110;85;21038;-76
2022/10/04 01:12:49;;;;;;;11.70;3.90;;;;;;;9.77;90.51;100369.16;2080807;85;21482;-76
2022/10/04 01:16:06;;;;;;;16.97;3.73;;;;;;;9.77;90.51;100369.16;2082559;85;21066;-77
2022/10/04 01:19:27;;;;;;;11.53;3.00;;;;;;;9.87;90.56;100387.13;2082292;85;21359;-77
2022/10/04 01:22:50;;;;;;;13.95;3.45;;;;;;;9.85;90.51;100389.09;2084783;85;21086;-76
2022/10/04 01:25:51;;;;;;;12.23;3.17;;;;;;;9.71;90.36;100390.48;2057079;85;20998;-77
2022/10/04 01:28:59;;;;;;;12.95;2.92;;;;;;;9.71;90.36;100390.48;2077789;85;20998;-77
2022/10/04 01:32:01;;;;;;;20.12;3.45;;;;;;;9.67;90.31;100385.67;2078946;85;21009;-77
2022/10/04 01:35:03;;;;;;;9.35;3.15;;;;;;;9.61;90.36;100388.44;2084653;85;21097;-77
2022/10/04 01:38:06;;;;;;;9.15;2.77;;;;;;;9.56;90.44;100385.41;2079818;85;21034;-76
2022/10/04 01:41:09;;;;;;;12.20;3.55;;;;;;;9.53;90.47;100390.53;2084150;85;22386;-77
2022/10/04 01:44:23;;;;;;;14.95;4.10;;;;;;;9.50;90.64;100390.01;2082645;85;21014;-77
2022/10/04 01:47:30;;;;;;;17.27;3.67;;;;;;;9.48;90.72;100387.50;2081305;85;21001;-77
2022/10/04 01:50:39;;;;;;;14.43;3.42;;;;;;;9.45;90.66;100385.16;2081940;85;21053;-77
2022/10/04 01:54:05;;;;;;;9.50;2.70;;;;;;;9.40;90.91;100391.40;2082096;85;21030;-76
2022/10/04 01:57:22;;;;;;;11.15;2.40;;;;;;;9.40;90.91;100391.40;2081809;85;21499;-77
2022/10/04 02:00:24;;;;;;;12.05;3.30;;;;;;;9.39;90.93;100393.22;2077383;85;21053;-77
2022/10/04 02:03:32;;;;;;;16.15;3.85;;;;;;;9.40;91.06;100400.20;2079148;84;21474;-77
2022/10/04 02:06:41;;;;;;;14.78;3.12;;;;;;;9.41;91.05;100396.56;2081600;85;20961;-77
2022/10/04 02:09:47;;;;;;;10.75;2.77;;;;;;;9.42;91.14;100389.44;2087422;85;21042;-77
2022/10/04 02:12:53;;;;;;;13.53;2.92;;;;;;;9.40;91.37;100396.23;2080618;85;21057;-77
2022/10/04 02:15:55;;;;;;;11.43;3.15;;;;;;;9.39;91.29;100395.87;2079936;85;21012;-76
2022/10/04 02:18:57;;;;;;;12.88;3.10;;;;;;;9.41;91.35;100396.56;2113764;84;21549;-77
2022/10/04 02:22:04;;;;;;;19.27;3.65;;;;;;;9.43;91.40;100391.95;2109438;82;20993;-77
2022/10/04 02:25:08;;;;;;;10.75;2.80;;;;;;;9.45;91.53;100393.10;2071876;85;21021;-77
2022/10/04 02:28:12;;;;;;;12.78;2.95;;;;;;;9.49;91.55;100389.65;2105514;82;21030;-76
2022/10/04 02:34:33;;;;;;;16.75;3.27;;;;;;;9.52;91.48;100389.37;2077232;85;21077;-76
2022/10/04 02:37:38;;;;;;;15.28;3.55;;;;;;;9.52;91.43;100388.05;2059655;85;21050;-77
2022/10/04 02:41:08;;;;;;;9.28;2.77;;;;;;;9.49;91.49;100389.19;2067825;84;21002;-77
2022/10/04 02:44:23;;;;;;;10.05;2.90;;;;;;;9.50;91.54;100395.30;2055496;85;21026;-76
2022/10/04 02:47:29;;;;;;;14.78;3.25;;;;;;;9.48;91.65;100396.77;2104302;84;21038;-77
2022/10/04 02:50:42;;;;;;;12.73;3.75;;;;;;;9.48;91.71;100387.50;2107908;82;21050;-77
2022/10/04 02:53:57;;;;;;;11.90;3.60;;;;;;;9.48;91.73;100388.00;2090852;85;21015;-75
2022/10/04 02:57:00;;;;;;;15.05;3.47;;;;;;;9.47;91.79;100383.70;2067008;84;21092;-76
2022/10/04 03:00:18;;;;;;;12.73;3.95;;;;;;;9.46;91.69;100378.89;2086517;84;21623;-75
2022/10/04 03:03:28;;;;;;;12.35;2.70;;;;;;;9.47;91.86;100377.90;2087954;84;21074;-76
2022/10/04 03:06:32;;;;;;;10.03;2.80;;;;;;;9.47;91.83;100384.52;2085011;84;21878;-77
2022/10/04 03:09:35;;;;;;;10.28;3.20;;;;;;;9.48;91.96;100386.67;2086675;85;21464;-76
2022/10/04 03:12:38;;;;;;;12.45;3.22;;;;;;;9.49;91.95;100390.51;2086837;85;20991;-77
2022/10/04 03:15:40;;;;;;;13.72;3.70;;;;;;;9.52;91.90;100398.64;2084953;85;21038;-77
2022/10/04 03:18:43;;;;;;;12.00;3.27;;;;;;;9.53;92.02;100393.67;2087195;85;21084;-77
2022/10/04 03:21:49;;;;;;;12.82;3.02;;;;;;;9.54;91.92;100394.00;2085038;85;21018;-77
2022/10/04 03:24:54;;;;;;;12.37;3.08;;;;;;;9.56;92.00;100401.31;2084546;85;21005;-77
2022/10/04 03:28:00;;;;;;;15.70;3.30;;;;;;;9.56;91.95;100401.31;2088063;84;20999;-76
2022/10/04 03:31:02;;;;;;;7.80;3.10;;;;;;;9.58;91.86;100400.67;2092111;84;21606;-77
2022/10/04 03:34:03;;;;;;;14.05;2.75;;;;;;;9.56;91.77;100399.48;2092825;85;21093;-77
2022/10/04 03:37:12;;;;;;;16.50;3.05;;;;;;;9.56;91.73;100406.11;2092272;85;21568;-77
2022/10/04 03:40:14;;;;;;;13.45;3.02;;;;;;;9.55;91.66;100404.95;2088866;84;21073;-76
2022/10/04 03:43:15;;;;;;;13.18;2.95;;;;;;;9.53;91.72;100408.24;2085090;84;21464;-76
2022/10/04 03:46:18;;;;;;;10.70;2.35;;;;;;;9.49;91.62;100409.05;2079377;85;21113;-76
2022/10/04 03:49:36;;;;;;;8.93;2.70;;;;;;;9.48;91.61;100411.84;2087868;85;21037;-77
2022/10/04 03:52:38;;;;;;;19.27;2.60;;;;;;;9.47;91.59;100412.83;2078845;85;21650;-76
2022/10/04 03:55:43;;;;;;;17.57;3.08;;;;;;;9.43;91.50;100413.14;2086494;85;21510;-77
2022/10/04 03:58:45;;;;;;;16.27;3.35;;;;;;;9.43;91.54;100409.63;2088203;84;21108;-76
2022/10/04 04:02:01;;;;;;;12.53;2.72;;;;;;;9.43;91.53;100399.89;2082521;84;22474;-76
2022/10/04 04:05:19;;;;;;;18.60;3.37;;;;;;;9.44;91.87;100403.37;2075789;84;21116;-76
2022/10/04 04:08:31;;;;;;;12.73;2.58;;;;;;;9.46;91.91;100407.17;2075370;85;22195;-76
2022/10/04 04:11:33;;;;;;;16.73;3.85;;;;;;;9.47;91.93;100408.86;2067684;85;21485;-76
2022/10/04 04:14:34;;;;;;;10.38;3.20;;;;;;;9.48;92.06;100410.52;2080084;85;20998;-76
2022/10/04 04:17:45;;;;;;;20.90;3.40;;;;;;;9.49;92.09;100409.05;2072865;84;21026;-76
2022/10/04 04:20:50;;;;;;;13.43;3.02;;;;;;;9.53;92.09;100416.19;2076143;84;21002;-76
2022/10/04 04:24:08;;;;;;;15.53;3.47;;;;;;;9.57;91.89;100418.86;2074546;84;21006;-76
2022/10/04 04:27:11;;;;;;;12.07;3.33;;;;;;;9.58;91.81;100420.55;2080889;85;21104;-76
2022/10/04 04:30:16;;;;;;;10.93;2.85;;;;;;;9.57;91.71;100419.72;2076330;84;21033;-76
2022/10/04 04:33:34;;;;;;;11.90;2.92;;;;;;;9.56;91.57;100424.66;2079212;85;21041;-76
2022/10/04 04:36:40;;;;;;;15.35;3.65;;;;;;;9.55;91.55;100422.17;2069995;84;21062;-76
2022/10/04 04:39:44;;;;;;;14.18;2.92;;;;;;;9.53;91.60;100424.14;2073685;84;20978;-76
2022/10/04 04:42:45;;;;;;;11.68;3.50;;;;;;;9.50;91.46;100423.12;2078876;84;21576;-75
2022/10/04 04:45:50;;;;;;;17.60;3.35;;;;;;;9.47;91.54;100423.42;2072018;85;20999;-79
2022/10/04 04:49:00;;;;;;;14.07;3.20;;;;;;;9.41;91.54;100424.37;2074832;84;21014;-81
2022/10/04 04:52:00;;;;;;;16.00;3.10;;;;;;;9.40;91.50;100434.63;2077571;84;21038;-83
2022/10/04 04:55:03;;;;;;;15.35;3.75;;;;;;;9.37;91.49;100425.64;2073130;84;21026;-80
2022/10/04 04:58:06;;;;;;;14.55;3.75;;;;;;;9.33;91.61;100427.44;2069857;85;21098;-79
2022/10/04 05:01:19;;;;;;;13.58;3.40;;;;;;;9.31;91.48;100428.07;2050426;85;21068;-81
2022/10/04 05:04:25;;;;;;;18.05;3.27;;;;;;;9.28;91.45;100435.82;2068918;85;21070;-80
2022/10/04 05:07:28;;;;;;;13.95;3.10;;;;;;;9.26;91.51;100440.42;2074290;84;21058;-80
2022/10/04 05:10:35;;;;;;;13.68;3.30;;;;;;;9.23;91.46;100437.25;2077503;84;21057;-80
2022/10/04 05:13:47;;;;;;;15.72;3.70;;;;;;;9.20;91.53;100443.19;2076289;85;21054;-81
2022/10/04 05:16:55;;;;;;;10.10;2.95;;;;;;;9.20;91.57;100446.33;2077114;85;21577;-81
2022/10/04 05:19:59;;;;;;;11.78;3.35;;;;;;;9.17;91.52;100439.52;2075110;85;21045;-80
2022/10/04 05:23:00;;;;;;;16.67;3.30;;;;;;;9.17;91.58;100449.27;2070901;85;21101;-80
2022/10/04 05:26:04;;;;;;;14.38;3.37;;;;;;;9.18;91.73;100456.26;2077305;85;21064;-80
2022/10/04 05:29:19;;;;;;;18.50;3.37;;;;;;;9.19;92.00;100468.00;2079076;85;21050;-80
2022/10/04 05:32:56;;;;;;;17.00;2.90;;;;;;;9.23;92.12;100465.88;2075321;85;20994;-80
2022/10/04 05:36:12;;;;;;;16.93;3.62;;;;;;;9.26;92.26;100470.87;2061567;85;21612;-82
2022/10/04 05:39:24;;;;;;;18.95;3.55;;;;;;;9.31;92.31;100476.56;2081533;85;21074;-82
2022/10/04 05:42:45;;;;;;;13.72;3.20;;;;;;;9.36;92.47;100481.42;2076485;85;21096;-81
2022/10/04 05:45:46;;;;;;;11.20;3.55;;;;;;;9.42;92.50;100486.11;2066319;84;21062;-78
2022/10/04 05:48:55;;;;;;;18.25;3.83;;;;;;;9.48;92.63;100493.95;2075371;84;22179;-84
2022/10/04 05:52:04;;;;;;;14.58;3.22;;;;;;;9.54;92.58;100492.84;2073223;84;21053;-81
2022/10/04 05:55:26;;;;;;;16.45;4.20;;;;;;;9.58;92.54;100488.92;2058492;85;21048;-80
2022/10/04 05:59:02;;;;;;;17.42;3.42;;;;;;;9.62;92.52;100496.90;2074529;84;21073;-80
2022/10/04 06:02:21;;;;;;;10.55;3.37;;;;;;;9.69;92.57;100501.13;2075792;85;21049;-86
2022/10/04 06:05:31;;;;;;;14.15;3.55;;;;;;;9.74;92.57;100510.78;2078223;85;21097;-80
2022/10/04 06:09:14;;;;;;;14.18;3.95;;;;;;;9.77;92.54;100506.96;2073343;84;21607;-80
2022/10/04 06:12:29;;;;;;;17.05;3.77;;;;;;;9.76;92.38;100502.66;2071199;84;21061;-78
2022/10/04 06:16:12;;;;;;;31.17;10.55;;;;;;;9.76;92.38;100502.66;2079620;85;21051;-83
2022/10/04 06:19:52;;;;;;;29.57;10.98;;;;;;;9.94;92.44;100528.67;2077969;84;21146;-84
2022/10/04 06:23:04;;;;;;;18.10;5.37;;;;;;;10.39;94.03;100525.55;2073381;84;21552;-82
2022/10/04 06:26:17;;;;;;;14.25;4.22;;;;;;;10.70;92.59;100522.77;2075160;84;21041;-83
2022/10/04 06:29:23;;;;;;;8.68;3.27;;;;;;;10.82;91.89;100522.50;2078075;85;21027;-79
2022/10/04 06:33:03;;;;;;;12.28;3.45;;;;;;;10.83;90.91;100526.81;2077161;84;21057;-78
2022/10/04 06:36:44;;;;;;;17.35;4.33;;;;;;;10.77;90.37;100527.77;2073260;84;21129;-79
2022/10/04 06:40:25;;;;;;;13.50;4.30;;;;;;;10.72;90.28;100531.39;2075637;85;21104;-79
2022/10/04 06:44:07;;;;;;;9.70;3.30;;;;;;;10.72;90.18;100535.87;2063712;85;21037;-78
2022/10/04 06:47:35;;;;;;;15.30;4.00;;;;;;;10.81;90.43;100532.77;2075101;85;20959;-79
2022/10/04 06:51:03;;;;;;;11.88;3.77;;;;;;;10.83;89.46;100524.16;2063362;85;21528;-80
2022/10/04 06:54:48;;;;;;;12.73;3.58;;;;;;;10.98;89.90;100540.67;2072301;85;20998;-79
2022/10/04 06:58:07;;;;;;;10.58;3.15;;;;;;;11.13;89.72;100542.22;2074391;85;21062;-79
2022/10/04 07:01:33;;;;;;;18.48;4.05;;;;;;;11.45;88.28;100536.67;2073826;85;21074;-79
2022/10/04 07:04:41;;;;;;;19.42;4.70;;;;;;;11.81;88.18;100544.39;2040497;85;21097;-78
2022/10/04 07:07:48;;;;;;;12.45;4.45;;;;;;;11.91;86.99;100546.91;2065746;85;21021;-78
2022/10/04 07:10:54;;;;;;;14.07;3.37;;;;;;;12.19;86.91;100553.59;2063876;85;21108;-79
2022/10/04 07:14:12;;;;;;;12.58;4.20;;;;;;;12.35;86.05;100559.39;2067119;85;21084;-79
2022/10/04 07:17:22;;;;;;;17.85;3.60;;;;;;;12.71;85.73;100563.01;2065810;85;20999;-78
2022/10/04 07:20:31;;;;;;;8.45;3.20;;;;;;;13.34;86.02;100563.98;2065714;84;21083;-79
2022/10/04 07:23:37;;;;;;;9.73;3.47;;;;;;;13.81;84.53;100559.88;2069317;85;21014;-79
2022/10/04 07:26:46;;;;;;;11.48;3.00;;;;;;;14.17;82.15;100564.62;2063735;85;21080;-79
2022/10/04 07:29:54;;;;;;;9.38;3.37;;;;;;;14.49;82.24;100558.67;2067716;85;21030;-79
2022/10/04 07:32:57;;;;;;;9.98;2.67;;;;;;;14.75;80.74;100564.46;2040837;85;21085;-78
2022/10/04 07:36:12;;;;;;;8.93;3.00;;;;;;;15.12;80.97;100569.39;2068248;85;21143;-79
2022/10/04 07:39:21;;;;;;;10.15;3.08;;;;;;;14.96;78.23;100568.23;2068657;85;20986;-78
2022/10/04 07:42:40;;;;;;;10.85;2.27;;;;;;;14.88;78.37;100571.00;2066742;85;21014;-78
2022/10/04 07:45:42;;;;;;;7.28;2.20;;;;;;;14.90;77.05;100568.47;2059827;85;21117;-78
2022/10/04 07:48:43;;;;;;;10.30;2.47;;;;;;;15.12;76.79;100570.73;2068780;85;21051;-77
2022/10/04 07:51:55;;;;;;;9.78;2.65;;;;;;;15.24;74.96;100575.09;2067311;85;21017;-77
2022/10/04 07:55:31;;;;;;;10.00;2.92;;;;;;;15.29;74.41;100567.34;2061430;85;21029;-78
2022/10/04 07:58:43;;;;;;;7.15;2.40;;;;;;;15.43;72.33;100572.34;2058092;84;21122;-78
2022/10/04 08:02:05;;;;;;;8.15;2.27;;;;;;;15.72;72.31;100586.70;2062918;85;21025;-78
2022/10/04 08:05:37;;;;;;;7.28;2.52;;;;;;;15.76;71.81;100586.63;2075809;85;21078;-78
2022/10/04 08:09:22;;;;;;;11.15;2.25;;;;;;;15.29;70.41;100592.74;2075401;84;21117;-77
2022/10/04 08:12:51;;;;;;;7.03;2.65;;;;;;;15.02;72.17;100595.55;2042443;85;21497;-78
2022/10/04 08:15:56;;;;;;;10.10;2.70;;;;;;;14.80;69.97;100588.76;2074431;84;21096;-80
2022/10/04 08:19:35;;;;;;;7.15;2.62;;;;;;;14.64;70.70;100604.97;2073590;84;21061;-78
2022/10/04 08:23:16;;;;;;;11.88;2.87;;;;;;;14.46;71.65;100609.25;2077336;84;21090;-79
2022/10/04 08:26:50;;;;;;;12.98;3.42;;;;;;;14.25;68.68;100607.27;2079415;84;21493;-79
2022/10/04 08:30:11;;;;;;;9.63;2.70;;;;;;;14.19;71.42;100613.80;2071824;84;21021;-77
2022/10/04 08:33:45;;;;;;;10.58;2.87;;;;;;;14.62;71.15;100618.17;2075204;85;21056;-77
2022/10/04 08:37:04;;;;;;;11.15;2.95;;;;;;;14.76;70.16;100623.54;2070900;85;21087;-77
2022/10/04 08:40:55;;;;;;;9.20;2.20;;;;;;;15.06;69.88;100620.06;2050353;85;21482;-78
2022/10/04 08:44:41;;;;;;;7.53;2.58;;;;;;;15.44;70.13;100623.47;2072286;85;21092;-77
2022/10/04 08:48:18;;;;;;;5.72;2.27;;;;;;;15.83;69.80;100625.00;2068221;85;21023;-77
2022/10/04 08:51:53;;;;;;;6.72;2.20;;;;;;;16.18;69.08;100630.50;2064340;85;21102;-78
2022/10/04 08:55:36;;;;;;;12.10;3.20;;;;;;;16.49;67.02;100614.92;2079351;85;20987;-78
2022/10/04 08:58:53;;;;;;;11.03;2.37;;;;;;;16.72;67.89;100623.23;2079181;84;21208;-78
2022/10/04 09:02:17;;;;;;;7.95;2.45;;;;;;;16.98;65.78;100633.37;2072833;85;21514;-77
2022/10/04 09:05:32;;;;;;;8.88;2.60;;;;;;;17.02;66.18;100626.58;2086280;84;21516;-77
2022/10/04 09:09:07;;;;;;;7.55;2.10;;;;;;;17.12;63.79;100627.55;2089308;84;21081;-78
2022/10/04 09:12:40;;;;;;;8.10;2.10;;;;;;;17.13;63.73;100630.58;2080492;84;20991;-78
2022/10/04 09:16:01;;;;;;;8.45;2.10;;;;;;;17.01;64.98;100635.14;2090151;84;21049;-78
2022/10/04 09:19:21;;;;;;;13.65;3.02;;;;;;;17.11;64.26;100633.95;2089416;84;21488;-78
2022/10/04 09:22:56;;;;;;;8.83;2.15;;;;;;;17.33;63.59;100636.05;2084603;84;21132;-78
2022/10/04 09:26:23;;;;;;;7.58;2.50;;;;;;;17.38;64.17;100639.78;2090362;84;21101;-79
2022/10/04 09:29:33;;;;;;;6.45;2.05;;;;;;;16.79;61.36;100639.72;2086765;84;21033;-78
2022/10/04 09:33:16;;;;;;;9.60;2.00;;;;;;;16.34;62.78;100649.00;2085690;84;21059;-78
2022/10/04 09:36:39;;;;;;;5.00;2.20;;;;;;;16.27;60.86;100648.91;2089481;84;21062;-77
2022/10/04 09:40:17;;;;;;;7.30;2.15;;;;;;;16.47;63.65;100645.11;2087334;84;21022;-79
2022/10/04 09:43:32;;;;;;;8.03;1.80;;;;;;;16.43;62.13;100646.50;2088694;84;21049;-78
2022/10/04 09:47:03;;;;;;;6.92;2.35;;;;;;;16.04;62.55;100647.75;2084186;84;21057;-77
2022/10/04 09:50:42;;;;;;;7.45;2.05;;;;;;;15.83;62.92;100645.89;2090192;84;21018;-78
2022/10/04 09:53:51;;;;;;;6.83;2.05;;;;;;;16.19;63.71;100652.23;2089553;84;21528;-78
2022/10/04 09:57:19;;;;;;;7.65;1.85;;;;;;;16.61;63.64;100650.56;2080587;84;21010;-78
2022/10/04 10:00:32;;;;;;;9.38;2.35;;;;;;;17.06;62.84;100647.11;2096682;84;21027;-78
2022/10/04 10:04:11;;;;;;;7.00;2.45;;;;;;;17.29;61.08;100646.34;2091257;84;21075;-78
2022/10/04 10:07:58;;;;;;;10.75;2.77;;;;;;;17.39;61.18;100656.19;2095449;84;21057;-78
2022/10/04 10:15:20;;;;;;;6.27;2.33;;;;;;;17.16;61.57;100655.64;2079490;84;21054;-79
2022/10/04 10:19:04;;;;;;;10.35;3.25;;;;;;;16.94;61.54;100655.70;2089877;84;22335;-79
2022/10/04 10:22:30;;;;;;;7.75;2.25;;;;;;;16.47;59.93;100655.83;2094572;84;21998;-78
2022/10/04 10:26:05;;;;;;;5.40;2.10;;;;;;;16.03;61.47;100669.38;2094176;84;21611;-80
2022/10/04 10:29:34;;;;;;;9.63;2.30;;;;;;;15.55;61.54;100661.77;2090092;84;21131;-78
2022/10/04 10:32:59;;;;;;;11.03;2.70;;;;;;;15.14;63.21;100671.58;2095148;84;21013;-78
2022/10/04 10:36:28;;;;;;;5.40;2.05;;;;;;;15.14;63.21;100671.58;2103261;84;21027;-77
2022/10/04 10:39:58;;;;;;;8.25;2.50;;;;;;;15.20;62.45;100668.20;2094235;84;21021;-78
2022/10/04 10:43:41;;;;;;;9.33;2.40;;;;;;;15.12;63.40;100675.45;2092770;84;21073;-78
2022/10/04 10:47:08;;;;;;;6.40;2.22;;;;;;;15.57;63.28;100670.45;2092627;84;21046;-77
2022/10/04 10:50:57;;;;;;;8.80;2.98;;;;;;;16.11;62.47;100664.73;2088347;84;21052;-78
2022/10/04 10:54:36;;;;;;;10.10;2.20;;;;;;;16.41;61.02;100664.59;2088643;84;21009;-78
2022/10/04 10:58:04;;;;;;;8.35;2.37;;;;;;;16.42;61.27;100666.28;2093779;84;21009;-78
2022/10/04 11:01:46;;;;;;;5.78;1.62;;;;;;;16.19;62.17;100675.84;2090607;84;21397;-78
2022/10/04 11:05:23;;;;;;;7.87;2.17;;;;;;;16.23;62.62;100673.60;2081281;84;21049;-78
2022/10/04 11:08:59;;;;;;;5.97;2.25;;;;;;;16.50;62.09;100673.33;2073747;85;21073;-76
2022/10/04 11:12:55;;;;;;;7.65;2.12;;;;;;;16.87;61.46;100672.77;2078098;85;21182;-82
2022/10/04 11:16:51;;;;;;;7.30;2.05;;;;;;;17.04;60.96;100671.45;2075635;85;21101;-77
2022/10/04 11:20:23;;;;;;;4.53;1.90;;;;;;;17.34;61.42;100662.65;2073429;85;21128;-78
2022/10/04 11:23:34;;;;;;;7.58;1.80;;;;;;;17.65;59.33;100665.39;2072703;85;21022;-79
2022/10/04 11:26:50;;;;;;;5.00;1.52;;;;;;;17.79;59.55;100675.17;2077322;85;21054;-78
2022/10/04 11:30:08;;;;;;;5.55;1.65;;;;;;;17.85;58.15;100680.26;2075337;84;21089;-79
2022/10/04 11:34:10;;;;;;;8.75;1.70;;;;;;;17.88;58.19;100680.70;2070530;84;21073;-78
2022/10/04 11:37:42;;;;;;;5.72;1.62;;;;;;;17.81;55.67;100673.12;2071020;85;21598;-78
2022/10/04 11:41:16;;;;;;;4.50;1.82;;;;;;;17.29;56.62;100679.88;2076744;85;21058;-78
2022/10/04 11:44:51;;;;;;;6.62;2.60;;;;;;;16.92;57.62;100680.55;2074598;85;21085;-79
2022/10/04 11:48:34;;;;;;;6.85;2.50;;;;;;;16.76;58.04;100688.84;2070789;85;21071;-79
2022/10/04 11:52:15;;;;;;;5.72;1.92;;;;;;;16.52;58.60;100689.53;2073404;85;21042;-78
2022/10/04 11:55:53;;;;;;;3.85;2.17;;;;;;;16.39;58.56;100688.09;2070941;85;21587;-79
2022/10/04 11:59:09;;;;;;;7.45;2.10;;;;;;;16.54;59.18;100692.86;2073634;85;21027;-79
2022/10/04 12:03:00;;;;;;;6.55;2.22;;;;;;;16.66;58.78;100693.69;2070780;84;21048;-78
2022/10/04 12:06:21;;;;;;;7.60;2.37;;;;;;;16.64;58.10;100696.57;2079325;85;21108;-78
2022/10/04 12:09:40;;;;;;;4.45;1.87;;;;;;;16.62;58.53;100692.42;2083734;85;20998;-78
2022/10/04 12:13:04;;;;;;;5.20;1.90;;;;;;;16.67;58.48;100695.33;2081484;85;21048;-79
2022/10/04 12:16:36;;;;;;;5.05;1.65;;;;;;;16.57;57.91;100695.66;2061770;85;21068;-77
2022/10/04 12:20:09;;;;;;;7.20;2.12;;;;;;;16.37;57.82;100699.49;2083746;84;21694;-78
2022/10/04 12:24:03;;;;;;;4.10;1.87;;;;;;;16.41;57.80;100700.75;2080413;85;21593;-78
2022/10/04 12:27:29;;;;;;;9.33;2.62;;;;;;;16.51;57.63;100701.28;2082401;85;21074;-78
2022/10/04 12:30:42;;;;;;;6.15;2.33;;;;;;;16.52;57.55;100698.09;2081139;85;21105;-78
2022/10/04 12:34:13;;;;;;;4.53;2.17;;;;;;;16.61;58.15;100706.30;2081187;84;21101;-78
2022/10/04 12:37:29;;;;;;;6.62;2.05;;;;;;;16.66;57.65;100693.69;2081384;84;21564;-78
2022/10/04 12:40:54;;;;;;;7.47;2.08;;;;;;;16.74;58.18;100690.87;2083831;84;22229;-79
2022/10/04 12:44:28;;;;;;;5.05;1.98;;;;;;;16.86;58.04;100693.36;2082952;84;21099;-77
2022/10/04 12:47:56;;;;;;;5.35;2.00;;;;;;;16.90;57.64;100693.83;2064797;85;20998;-77
2022/10/04 12:51:35;;;;;;;8.70;2.40;;;;;;;16.94;57.42;100685.70;2065930;84;22421;-76
2022/10/04 12:55:19;;;;;;;6.95;2.40;;;;;;;16.96;58.02;100685.00;2066505;84;21036;-77
2022/10/04 12:59:03;;;;;;;8.28;2.05;;;;;;;16.95;57.32;100681.98;2093517;83;21057;-77
2022/10/04 13:02:36;;;;;;;7.12;1.82;;;;;;;16.69;57.46;100675.88;2100826;84;21074;-77
2022/10/04 13:06:09;;;;;;;5.08;2.10;;;;;;;16.40;57.35;100688.40;2077919;84;21094;-76
2022/10/04 13:09:19;;;;;;;6.22;2.45;;;;;;;16.06;57.57;100695.25;2086989;84;21006;-77
2022/10/04 13:12:41;;;;;;;6.17;2.40;;;;;;;15.71;57.45;100696.89;2078453;85;21097;-76
2022/10/04 13:16:05;;;;;;;8.33;2.00;;;;;;;15.47;58.11;100699.30;2070862;84;21069;-77
2022/10/04 13:19:23;;;;;;;6.78;2.45;;;;;;;15.60;58.34;100696.82;2073475;85;21112;-76
2022/10/04 13:22:47;;;;;;;6.67;2.10;;;;;;;15.77;58.46;100700.16;2077351;85;21069;-76
2022/10/04 13:26:15;;;;;;;3.35;1.62;;;;;;;15.93;57.76;100692.41;2071816;85;21117;-76
2022/10/04 13:29:45;;;;;;;6.65;1.98;;;;;;;16.03;57.30;100691.61;2073054;85;21535;-77
2022/10/04 13:32:58;;;;;;;6.25;1.90;;;;;;;16.16;57.14;100700.80;2070765;84;21365;-76
2022/10/04 13:36:07;;;;;;;5.20;1.98;;;;;;;16.13;57.11;100700.66;2077983;84;21547;-76
2022/10/04 13:39:31;;;;;;;6.53;2.25;;;;;;;16.24;57.18;100700.69;2076688;85;21081;-76
2022/10/04 13:42:58;;;;;;;16.17;6.12;;;;;;;16.36;57.14;100700.01;2070791;85;21113;-76
2022/10/04 13:46:26;;;;;;;7.20;3.15;;;;;;;16.44;56.88;100696.36;2058170;84;22243;-78
2022/10/04 13:50:09;;;;;;;5.97;2.10;;;;;;;16.25;56.85;100705.04;2068579;84;21085;-76
2022/10/04 13:57:34;;;;;;;8.58;2.25;;;;;;;16.10;57.40;100714.43;2017756;85;21034;-78
2022/10/04 14:00:46;;;;;;;4.92;1.90;;;;;;;16.12;56.90;100705.19;2075346;84;21080;-79
2022/10/04 14:04:32;;;;;;;4.08;1.90;;;;;;;16.10;56.62;100715.25;2079718;84;21145;-76
2022/10/04 14:08:07;;;;;;;4.40;2.05;;;;;;;16.00;57.11;100717.41;2084076;84;21460;-75
2022/10/04 14:11:55;;;;;;;8.20;3.15;;;;;;;16.00;57.28;100715.25;2089133;84;21052;-77
2022/10/04 14:15:25;;;;;;;4.70;2.47;;;;;;;16.00;57.15;100710.73;2082318;84;21627;-76
2022/10/04 14:18:50;;;;;;;6.37;2.47;;;;;;;15.99;56.87;100712.23;2083753;84;21128;-75
2022/10/04 14:22:21;;;;;;;4.72;2.80;;;;;;;16.01;57.68;100704.34;2109403;83;20993;-75
2022/10/04 14:25:32;;;;;;;11.15;3.33;;;;;;;16.08;57.49;100710.62;2033688;84;21528;-76
2022/10/04 14:28:53;;;;;;;7.62;3.95;;;;;;;16.13;56.39;100716.24;2046835;85;21074;-76
2022/10/04 14:32:40;;;;;;;4.78;2.80;;;;;;;16.14;56.05;100711.20;2075175;84;21085;-76
2022/10/04 14:36:11;;;;;;;6.92;3.27;;;;;;;16.14;56.13;100718.41;2099608;84;21124;-76
2022/10/04 14:39:44;;;;;;;7.58;3.25;;;;;;;16.16;56.34;100720.88;2058988;85;21528;-76
2022/10/04 14:42:57;;;;;;;7.03;3.05;;;;;;;16.16;56.17;100723.04;2076168;85;21070;-76
2022/10/04 14:46:26;;;;;;;8.93;2.22;;;;;;;16.17;56.83;100727.39;2078346;85;21491;-76
2022/10/04 14:50:22;;;;;;;3.20;1.70;;;;;;;16.20;56.72;100728.87;2082514;85;21484;-76
2022/10/04 14:54:03;;;;;;;7.87;3.40;;;;;;;16.13;57.20;100726.95;2072397;86;21056;-76
2022/10/04 14:57:19;;;;;;;6.53;2.20;;;;;;;16.06;57.28;100732.72;2052535;85;21046;-76
2022/10/04 15:00:31;;;;;;;5.92;1.95;;;;;;;15.87;57.30;100728.77;2071092;84;21105;-77
2022/10/04 15:03:55;;;;;;;8.03;2.02;;;;;;;15.71;57.45;100730.34;2073497;84;21080;-76
2022/10/04 15:07:17;;;;;;;7.03;1.75;;;;;;;15.58;56.95;100730.94;2073236;84;21108;-77
2022/10/04 15:10:29;;;;;;;4.70;1.70;;;;;;;15.37;57.35;100741.04;2075916;85;21080;-77
2022/10/04 15:13:54;;;;;;;4.30;1.67;;;;;;;15.23;57.71;100742.67;2067146;85;21073;-79
2022/10/04 15:16:59;;;;;;;4.10;1.77;;;;;;;15.13;58.00;100744.77;2068706;84;21586;-76
2022/10/04 15:20:24;;;;;;;6.65;2.47;;;;;;;15.09;58.47;100751.98;2068234;85;21350;-77
2022/10/04 15:23:48;;;;;;;9.10;2.95;;;;;;;15.00;58.60;100744.55;2071083;84;21056;-78
2022/10/04 15:27:03;;;;;;;7.25;3.42;;;;;;;14.90;58.60;100747.98;2071030;84;21030;-77
2022/10/04 15:30:30;;;;;;;6.90;2.92;;;;;;;14.79;58.69;100751.40;2059419;86;21530;-78
2022/10/04 15:34:24;;;;;;;8.00;2.40;;;;;;;14.72;58.87;100762.97;2070135;84;21096;-78
2022/10/04 15:37:37;;;;;;;4.15;2.12;;;;;;;14.59;59.11;100766.24;2066671;85;21033;-78
2022/10/04 15:41:00;;;;;;;6.83;2.00;;;;;;;14.46;59.37;100771.30;2065502;84;21006;-78